Time;durP1;ratioP1;P1;durP2;ratioP2;P2;SDS_P1;SDS_P2;PMS_P1;PMS_P2;Temp;Humidity;BMP_temperature;BMP_pressure;BME280_temperature;BME280_humidity;BME280_pressure;Samples;Min_cycle;Max_cycle;Signal;HPM_P1;HPM_P2
2021/01/14 00:14:26;;;;;;;11.88;7.30;;;3.40;99.90;;;;;;5321744;23;20053;-73
2021/01/14 00:16:52;;;;;;;17.52;9.18;;;3.40;99.90;;;;;;5031590;28;20047;-73
2021/01/14 00:19:18;;;;;;;20.20;9.38;;;3.30;99.90;;;;;;5032061;28;20049;-72
2021/01/14 00:21:45;;;;;;;13.82;7.60;;;3.30;99.90;;;;;;5031283;28;20046;-72
2021/01/14 00:24:11;;;;;;;11.00;7.07;;;3.30;99.90;;;;;;5032497;28;20044;-72
2021/01/14 00:26:40;;;;;;;12.35;6.43;;;3.30;99.90;;;;;;5032404;28;20029;-73
2021/01/14 00:29:07;;;;;;;16.17;7.75;;;3.40;99.90;;;;;;5032227;28;20042;-72
2021/01/14 00:31:34;;;;;;;19.23;7.47;;;3.40;99.90;;;;;;5032041;28;20414;-72
2021/01/14 00:34:00;;;;;;;12.85;6.80;;;3.40;99.90;;;;;;5032080;28;20036;-72
2021/01/14 00:39:23;;;;;;;11.32;6.18;;;3.40;99.90;;;;;;5019099;28;20022;-72
2021/01/14 00:41:50;;;;;;;12.57;7.00;;;3.30;99.90;;;;;;5031405;28;20037;-72
2021/01/14 00:44:16;;;;;;;16.08;7.97;;;3.20;99.90;;;;;;5032221;28;20041;-73
2021/01/14 00:46:42;;;;;;;15.68;8.30;;;3.20;99.90;;;;;;5031816;28;20041;-73
2021/01/14 00:49:09;;;;;;;11.35;5.78;;;3.20;99.90;;;;;;5031131;28;20049;-72
2021/01/14 00:51:36;;;;;;;10.07;5.93;;;3.20;99.90;;;;;;5004445;28;20042;-72
2021/01/14 00:54:03;;;;;;;7.93;4.82;;;3.30;99.90;;;;;;5022282;28;20046;-73
2021/01/14 00:56:34;;;;;;;12.52;7.47;;;3.30;99.90;;;;;;5032638;28;20025;-72
2021/01/14 00:59:01;;;;;;;10.30;5.57;;;3.30;99.90;;;;;;5031872;28;20124;-73
2021/01/14 01:01:28;;;;;;;9.98;4.95;;;3.30;99.90;;;;;;5031926;28;20025;-73
2021/01/14 01:03:54;;;;;;;12.60;7.30;;;3.40;99.90;;;;;;5031389;28;20048;-73
2021/01/14 01:06:21;;;;;;;9.90;5.85;;;3.40;99.90;;;;;;5031899;28;20378;-73
2021/01/14 01:08:48;;;;;;;12.30;5.70;;;3.40;99.90;;;;;;5031097;28;20040;-73
2021/01/14 01:11:22;;;;;;;11.60;4.90;;;3.40;99.90;;;;;;5031180;28;20490;-73
2021/01/14 01:24:00;;;;;;;8.73;4.75;;;3.40;99.90;;;;;;5254208;22;20054;-74
2021/01/14 01:26:27;;;;;;;10.95;5.68;;;3.50;99.90;;;;;;4991876;28;20511;-73
2021/01/14 01:28:53;;;;;;;9.57;5.10;;;3.50;99.90;;;;;;4995811;28;20387;-73
2021/01/14 01:31:19;;;;;;;15.10;6.45;;;3.50;99.90;;;;;;4996453;28;20041;-73
2021/01/14 01:33:45;;;;;;;14.55;6.03;;;3.40;99.90;;;;;;4996310;28;20042;-73
2021/01/14 01:36:13;;;;;;;8.82;4.75;;;3.50;99.90;;;;;;4996387;28;20353;-73
2021/01/14 01:38:40;;;;;;;15.25;5.97;;;3.50;99.90;;;;;;4996821;28;20026;-73
2021/01/14 01:41:06;;;;;;;10.32;4.60;;;3.50;99.90;;;;;;4995607;28;20396;-73
2021/01/14 01:43:33;;;;;;;11.68;5.32;;;3.40;99.90;;;;;;4996423;28;20034;-73
2021/01/14 01:46:01;;;;;;;8.27;4.07;;;3.40;99.90;;;;;;4996091;28;20054;-72
2021/01/14 01:48:28;;;;;;;7.18;3.97;;;3.40;99.90;;;;;;4996375;28;20030;-73
2021/01/14 01:50:56;;;;;;;9.05;3.55;;;3.50;99.90;;;;;;4995972;28;20038;-73
2021/01/14 01:53:23;;;;;;;7.45;3.67;;;3.50;99.90;;;;;;4995805;28;20038;-73
2021/01/14 01:55:50;;;;;;;6.75;3.47;;;3.50;99.90;;;;;;4996355;28;20038;-73
2021/01/14 01:58:21;;;;;;;6.07;3.80;;;3.50;99.90;;;;;;4995925;28;20041;-73
2021/01/14 02:00:48;;;;;;;7.72;3.70;;;3.50;99.90;;;;;;4996216;28;20046;-73
2021/01/14 02:03:15;;;;;;;7.13;3.72;;;3.50;99.90;;;;;;4995825;28;20034;-73
2021/01/14 02:05:41;;;;;;;8.60;3.80;;;3.60;99.90;;;;;;4996122;28;20369;-73
2021/01/14 02:08:30;;;;;;;6.93;3.55;;;3.50;99.90;;;;;;4995871;28;20041;-73
2021/01/14 02:11:02;;;;;;;7.93;3.72;;;3.60;99.90;;;;;;4996203;28;20030;-73
2021/01/14 02:13:41;;;;;;;8.60;3.00;;;3.50;99.90;;;;;;4996150;28;20043;-73
2021/01/14 02:16:09;;;;;;;8.63;3.70;;;3.50;99.90;;;;;;4995958;28;20026;-73
2021/01/14 02:18:36;;;;;;;8.52;3.92;;;3.50;99.90;;;;;;4995396;28;20038;-73
2021/01/14 02:21:06;;;;;;;8.13;3.60;;;3.50;99.90;;;;;;4995497;28;20392;-74
2021/01/14 02:23:51;;;;;;;6.07;3.45;;;3.50;99.90;;;;;;4995366;28;20054;-73
2021/01/14 02:26:28;;;;;;;7.88;4.15;;;3.50;99.90;;;;;;4995414;28;20046;-73
2021/01/14 02:28:56;;;;;;;10.98;4.47;;;3.60;99.90;;;;;;4995915;28;20039;-74
2021/01/14 02:31:23;;;;;;;9.93;3.78;;;3.50;99.90;;;;;;4995473;28;20043;-73
2021/01/14 02:33:54;;;;;;;8.30;3.72;;;3.50;99.90;;;;;;4996082;28;20042;-73
2021/01/14 02:36:24;;;;;;;7.40;4.20;;;3.50;99.90;;;;;;4995308;28;20034;-73
2021/01/14 02:38:51;;;;;;;14.27;4.68;;;3.50;99.90;;;;;;4995051;28;20040;-73
2021/01/14 02:41:18;;;;;;;8.05;4.78;;;3.50;99.90;;;;;;4995012;28;20034;-74
2021/01/14 02:43:44;;;;;;;9.68;4.22;;;3.40;99.90;;;;;;4995752;28;20034;-73
2021/01/14 02:46:11;;;;;;;9.68;4.68;;;3.40;99.90;;;;;;4994734;28;20035;-72
2021/01/14 02:49:06;;;;;;;7.25;4.15;;;3.40;99.90;;;;;;4994722;28;20042;-73
2021/01/14 02:51:44;;;;;;;7.35;3.72;;;3.30;99.90;;;;;;4994606;28;20054;-73
2021/01/14 02:54:12;;;;;;;11.27;4.10;;;3.30;99.90;;;;;;4994850;28;20348;-73
2021/01/14 02:56:40;;;;;;;10.38;4.88;;;3.30;99.90;;;;;;4988379;28;20125;-73
2021/01/14 02:59:06;;;;;;;9.68;4.65;;;3.40;99.90;;;;;;4994448;28;20491;-73
2021/01/14 03:01:33;;;;;;;9.27;4.38;;;3.30;99.90;;;;;;4995009;28;20039;-73
2021/01/14 03:03:59;;;;;;;10.60;4.72;;;3.30;99.90;;;;;;4995243;28;20030;-73
2021/01/14 03:06:26;;;;;;;12.82;4.53;;;3.30;99.90;;;;;;4993935;28;20046;-73
2021/01/14 03:08:52;;;;;;;10.85;5.38;;;3.20;99.90;;;;;;4995141;28;20026;-73
2021/01/14 03:11:31;;;;;;;11.95;4.32;;;3.20;99.90;;;;;;4994554;28;20026;-73
2021/01/14 03:13:58;;;;;;;12.80;4.95;;;3.10;99.90;;;;;;4988422;28;20585;-73
2021/01/14 03:16:25;;;;;;;12.52;5.22;;;3.10;99.90;;;;;;4994226;28;20504;-73
2021/01/14 03:18:52;;;;;;;9.25;4.93;;;3.10;99.90;;;;;;4994989;28;20034;-72
2021/01/14 03:21:23;;;;;;;8.45;4.20;;;3.00;99.90;;;;;;4994463;28;20037;-72
2021/01/14 03:23:50;;;;;;;12.00;4.13;;;3.00;99.90;;;;;;4994362;28;20373;-73
2021/01/14 03:26:17;;;;;;;12.27;4.78;;;3.00;99.90;;;;;;4994389;28;22112;-73
2021/01/14 03:28:43;;;;;;;12.73;5.43;;;2.90;99.90;;;;;;4994823;28;20041;-73
2021/01/14 03:31:11;;;;;;;9.73;5.20;;;2.90;99.90;;;;;;4994219;28;20037;-73
2021/01/14 03:33:38;;;;;;;10.10;4.95;;;2.90;99.90;;;;;;4994425;28;20041;-73
2021/01/14 03:36:06;;;;;;;13.57;5.50;;;2.90;99.90;;;;;;4993390;28;20039;-73
2021/01/14 03:38:34;;;;;;;11.63;4.75;;;2.90;99.90;;;;;;4994577;28;20460;-73
2021/01/14 03:41:00;;;;;;;11.77;4.78;;;2.90;99.90;;;;;;4994073;28;20038;-73
2021/01/14 03:43:26;;;;;;;11.45;5.55;;;2.90;99.90;;;;;;4994285;28;20034;-73
2021/01/14 03:45:52;;;;;;;11.70;6.22;;;2.90;99.90;;;;;;4993939;28;20026;-73
2021/01/14 03:48:18;;;;;;;12.13;5.45;;;2.90;99.90;;;;;;4993978;28;20037;-73
2021/01/14 03:50:45;;;;;;;10.32;4.85;;;2.90;99.90;;;;;;4993168;28;20050;-73
2021/01/14 03:53:11;;;;;;;12.15;5.63;;;2.90;99.90;;;;;;4993182;28;20053;-73
2021/01/14 03:55:37;;;;;;;12.52;5.30;;;3.00;99.90;;;;;;4993895;28;20042;-73
2021/01/14 03:58:04;;;;;;;10.18;5.55;;;2.90;99.90;;;;;;4993910;28;20061;-73
2021/01/14 04:00:30;;;;;;;12.98;5.90;;;2.90;99.90;;;;;;4993696;28;20054;-73
2021/01/14 04:02:56;;;;;;;11.68;6.18;;;2.90;99.90;;;;;;4994099;28;20419;-74
2021/01/14 04:05:23;;;;;;;8.80;4.63;;;2.90;99.90;;;;;;4993690;28;20034;-74
2021/01/14 04:07:49;;;;;;;11.82;5.90;;;2.90;99.90;;;;;;4994125;28;20033;-73
2021/01/14 04:10:15;;;;;;;11.50;6.28;;;2.90;99.90;;;;;;4993698;28;20457;-74
2021/01/14 04:12:41;;;;;;;13.63;6.57;;;2.90;99.90;;;;;;4994136;28;20041;-73
2021/01/14 04:15:08;;;;;;;13.27;7.03;;;2.90;99.90;;;;;;4993090;28;20034;-74
2021/01/14 04:17:34;;;;;;;17.98;7.47;;;2.90;99.90;;;;;;4993079;28;20065;-74
2021/01/14 04:20:01;;;;;;;12.15;7.00;;;2.90;99.90;;;;;;4993766;28;20034;-73
2021/01/14 04:22:27;;;;;;;11.85;6.57;;;2.80;99.90;;;;;;4993270;28;20033;-74
2021/01/14 04:25:01;;;;;;;15.95;7.63;;;2.80;99.90;;;;;;4992942;28;20514;-73
2021/01/14 04:27:28;;;;;;;17.02;7.40;;;2.80;99.90;;;;;;4993388;28;20042;-73
2021/01/14 04:29:55;;;;;;;13.30;7.68;;;2.70;99.90;;;;;;4993312;28;20373;-73
2021/01/14 04:32:22;;;;;;;15.13;6.93;;;2.70;99.90;;;;;;4993155;28;20369;-73
2021/01/14 04:34:48;;;;;;;13.65;7.70;;;2.70;99.90;;;;;;4993326;28;20468;-73
2021/01/14 04:37:14;;;;;;;15.35;7.95;;;2.70;99.90;;;;;;4992894;28;20037;-73
2021/01/14 04:39:40;;;;;;;15.18;7.57;;;2.70;99.90;;;;;;4993600;28;20040;-73
2021/01/14 04:42:09;;;;;;;14.82;7.43;;;2.70;99.90;;;;;;4992876;28;20042;-73
2021/01/14 04:44:35;;;;;;;10.68;6.45;;;2.70;99.90;;;;;;4993113;28;20038;-73
2021/01/14 04:47:11;;;;;;;15.25;7.80;;;2.70;99.90;;;;;;4993308;28;20034;-73
2021/01/14 04:49:38;;;;;;;15.02;6.35;;;2.60;99.90;;;;;;4982045;28;20034;-73
2021/01/14 04:52:06;;;;;;;14.23;6.65;;;2.60;99.90;;;;;;4993143;28;20039;-73
2021/01/14 04:54:34;;;;;;;14.93;7.25;;;2.60;99.90;;;;;;4992972;28;20038;-73
2021/01/14 04:57:27;;;;;;;12.75;6.88;;;2.50;99.90;;;;;;4993157;28;20463;-73
2021/01/14 04:59:53;;;;;;;13.70;6.82;;;2.50;99.90;;;;;;4992266;28;20049;-73
2021/01/14 05:02:24;;;;;;;15.30;7.25;;;2.50;99.90;;;;;;4992284;28;20034;-73
2021/01/14 05:04:52;;;;;;;13.70;7.13;;;2.50;99.90;;;;;;4992816;28;20034;-73
2021/01/14 05:07:30;;;;;;;11.75;6.47;;;2.50;99.90;;;;;;4992456;28;20037;-73
2021/01/14 05:10:05;;;;;;;17.95;6.47;;;2.50;99.90;;;;;;4991901;28;20046;-72
2021/01/14 05:12:34;;;;;;;13.35;6.70;;;2.50;99.90;;;;;;4993149;28;20045;-72
2021/01/14 05:15:01;;;;;;;15.85;6.65;;;2.40;99.90;;;;;;4975205;28;20034;-72
2021/01/14 05:17:28;;;;;;;16.88;6.40;;;2.40;99.90;;;;;;4972965;28;20514;-73
2021/01/14 05:19:55;;;;;;;11.82;6.25;;;2.40;99.90;;;;;;4992931;28;20038;-73
2021/01/14 05:22:25;;;;;;;12.55;5.97;;;2.40;99.90;;;;;;4992494;28;20460;-73
2021/01/14 05:25:09;;;;;;;12.93;5.45;;;2.30;99.90;;;;;;4992681;28;20058;-73
2021/01/14 05:27:36;;;;;;;13.27;6.07;;;2.30;99.90;;;;;;4992931;28;20353;-74
2021/01/14 05:30:06;;;;;;;18.70;6.93;;;2.20;99.90;;;;;;4992544;28;20042;-73
2021/01/14 05:32:42;;;;;;;13.50;6.25;;;2.20;99.90;;;;;;4992594;28;20050;-74
2021/01/14 05:35:11;;;;;;;18.17;6.45;;;2.20;99.90;;;;;;5000842;28;20472;-73
2021/01/14 05:37:46;;;;;;;10.77;5.32;;;2.20;99.90;;;;;;4998430;28;20383;-74
2021/01/14 05:40:21;;;;;;;10.93;5.50;;;2.20;99.90;;;;;;4991379;28;20034;-73
2021/01/14 05:43:00;;;;;;;14.10;5.97;;;2.20;99.90;;;;;;4999214;28;20447;-73
2021/01/14 05:45:27;;;;;;;9.63;5.35;;;2.20;99.90;;;;;;4999854;28;20073;-73
2021/01/14 05:48:10;;;;;;;12.50;5.32;;;2.10;99.90;;;;;;4992689;28;20030;-73
2021/01/14 05:50:47;;;;;;;11.40;4.72;;;2.10;99.90;;;;;;4993396;28;20065;-73
2021/01/14 05:53:18;;;;;;;15.25;6.32;;;2.00;99.90;;;;;;5000071;28;20026;-73
2021/01/14 05:55:46;;;;;;;9.20;5.90;;;2.00;99.90;;;;;;4992523;28;20030;-73
2021/01/14 05:58:17;;;;;;;8.23;5.00;;;1.90;99.90;;;;;;4984955;28;20060;-73
2021/01/14 06:00:48;;;;;;;19.63;10.48;;;2.00;99.90;;;;;;4992347;28;20053;-73
2021/01/14 06:03:28;;;;;;;13.60;8.18;;;1.90;99.90;;;;;;4992051;28;20045;-73
2021/01/14 06:05:58;;;;;;;13.73;6.80;;;2.00;99.90;;;;;;5008204;28;20037;-73
2021/01/14 06:08:27;;;;;;;13.63;8.20;;;1.90;99.90;;;;;;4994395;28;20045;-73
2021/01/14 06:10:54;;;;;;;13.27;7.18;;;1.90;99.90;;;;;;4992364;28;20034;-73
2021/01/14 06:13:38;;;;;;;14.50;6.55;;;1.90;99.90;;;;;;4991620;28;20043;-73
2021/01/14 06:16:06;;;;;;;10.93;5.60;;;1.80;99.90;;;;;;4996580;28;20026;-73
2021/01/14 06:18:32;;;;;;;12.20;5.68;;;1.80;99.90;;;;;;4995978;28;20034;-72
2021/01/14 06:20:58;;;;;;;9.13;5.63;;;1.80;99.90;;;;;;5010155;28;20037;-74
2021/01/14 06:23:25;;;;;;;14.32;6.50;;;1.90;99.90;;;;;;4997924;28;20042;-73
2021/01/14 06:25:53;;;;;;;12.32;4.57;;;1.90;99.90;;;;;;5014691;28;20053;-73
2021/01/14 06:28:21;;;;;;;9.30;4.45;;;1.90;99.90;;;;;;4997878;28;20037;-73
2021/01/14 06:31:01;;;;;;;9.48;4.88;;;1.90;99.90;;;;;;4978620;28;20038;-73
2021/01/14 06:33:30;;;;;;;12.07;4.10;;;2.00;99.90;;;;;;4995345;28;20038;-73
2021/01/14 06:36:05;;;;;;;12.02;4.32;;;2.00;99.90;;;;;;4995720;28;20045;-73
2021/01/14 06:38:49;;;;;;;10.68;4.55;;;2.00;99.90;;;;;;4995109;28;20038;-73
2021/01/14 06:41:18;;;;;;;10.82;3.17;;;2.00;99.90;;;;;;4995483;28;20034;-73
2021/01/14 06:43:46;;;;;;;7.22;2.83;;;2.00;99.90;;;;;;4995574;28;20041;-73
2021/01/14 06:46:21;;;;;;;9.63;2.58;;;2.00;99.90;;;;;;4995194;28;20483;-73
2021/01/14 06:48:59;;;;;;;5.90;2.70;;;1.90;99.90;;;;;;4995475;28;20035;-73
2021/01/14 06:51:49;;;;;;;5.28;2.30;;;1.90;99.90;;;;;;4994663;28;20038;-72
2021/01/14 06:54:17;;;;;;;7.93;3.28;;;1.90;99.90;;;;;;4995004;28;20050;-73
2021/01/14 06:57:02;;;;;;;10.40;2.53;;;1.90;99.90;;;;;;4995361;28;20030;-73
2021/01/14 06:59:29;;;;;;;10.35;2.70;;;1.90;99.90;;;;;;4994562;28;20220;-73
2021/01/14 07:02:07;;;;;;;7.88;3.63;;;1.80;99.90;;;;;;4995218;28;20145;-73
2021/01/14 07:04:51;;;;;;;8.93;3.70;;;1.80;99.90;;;;;;4995133;28;20042;-73
2021/01/14 07:07:26;;;;;;;9.00;4.80;;;1.80;99.90;;;;;;4994771;28;20479;-72
2021/01/14 07:10:12;;;;;;;9.13;3.55;;;1.80;99.90;;;;;;4995551;28;20029;-73
2021/01/14 07:12:40;;;;;;;4.20;2.58;;;1.70;99.90;;;;;;4995287;28;20038;-73
2021/01/14 07:15:10;;;;;;;9.98;2.80;;;1.60;99.90;;;;;;4994871;28;20050;-73
2021/01/14 07:17:40;;;;;;;11.98;2.72;;;1.60;99.90;;;;;;4994599;28;20038;-74
2021/01/14 07:20:11;;;;;;;10.85;2.67;;;1.60;99.90;;;;;;5009244;28;20503;-73
2021/01/14 07:22:43;;;;;;;8.30;2.50;;;1.60;99.90;;;;;;4994907;28;20041;-73
2021/01/14 07:25:13;;;;;;;6.53;2.35;;;1.50;99.90;;;;;;4993864;28;20050;-75
2021/01/14 07:27:41;;;;;;;6.57;2.25;;;1.50;99.90;;;;;;4994929;28;20464;-73
2021/01/14 07:30:08;;;;;;;11.30;2.40;;;1.40;99.90;;;;;;4994395;28;20042;-73
2021/01/14 07:32:55;;;;;;;7.25;2.17;;;1.40;99.90;;;;;;4994645;28;20480;-73
2021/01/14 07:35:33;;;;;;;7.15;2.88;;;1.40;99.90;;;;;;4993847;28;20030;-73
2021/01/14 07:38:00;;;;;;;5.13;2.17;;;1.30;99.90;;;;;;4994573;28;20034;-73
2021/01/14 07:40:31;;;;;;;7.18;1.98;;;1.30;99.90;;;;;;5001121;28;20026;-73
2021/01/14 07:42:58;;;;;;;8.68;2.13;;;1.30;99.90;;;;;;5004413;28;20051;-73
2021/01/14 07:45:24;;;;;;;6.22;2.03;;;1.40;99.90;;;;;;5010456;28;20037;-74
2021/01/14 07:47:51;;;;;;;4.85;2.33;;;1.40;99.90;;;;;;4997194;28;20041;-73
2021/01/14 07:50:26;;;;;;;5.30;2.30;;;1.40;99.90;;;;;;4993881;28;20026;-73
2021/01/14 07:52:54;;;;;;;7.10;2.05;;;1.30;99.90;;;;;;4994077;28;20499;-74
2021/01/14 07:55:38;;;;;;;6.47;4.57;;;1.30;99.90;;;;;;4993912;28;20460;-73
2021/01/14 07:58:22;;;;;;;6.95;3.20;;;1.30;99.90;;;;;;4977975;28;20491;-74
2021/01/14 08:01:08;;;;;;;6.28;2.33;;;1.30;99.90;;;;;;4994320;28;20030;-74
2021/01/14 08:03:42;;;;;;;4.65;1.98;;;1.30;99.90;;;;;;4993665;28;20395;-74
2021/01/14 08:06:19;;;;;;;5.43;2.00;;;1.20;99.90;;;;;;4993690;28;20030;-73
2021/01/14 08:09:06;;;;;;;4.15;2.20;;;1.20;99.90;;;;;;4993947;28;20030;-73
2021/01/14 08:11:45;;;;;;;6.07;2.53;;;1.10;99.90;;;;;;4993357;28;20110;-74
2021/01/14 08:14:11;;;;;;;5.40;2.78;;;1.10;99.90;;;;;;4994202;28;20045;-74
2021/01/14 08:16:54;;;;;;;12.52;4.38;;;1.10;99.90;;;;;;4993910;28;20488;-74
2021/01/14 08:19:20;;;;;;;18.23;5.18;;;1.10;99.90;;;;;;4992700;28;20392;-74
2021/01/14 08:21:57;;;;;;;11.85;4.45;;;1.20;99.90;;;;;;4993554;28;20391;-74
2021/01/14 08:24:55;;;;;;;8.07;2.75;;;1.20;99.90;;;;;;4992916;28;20145;-73
2021/01/14 08:27:24;;;;;;;7.13;2.03;;;1.20;99.90;;;;;;4993456;28;20034;-73
2021/01/14 08:30:16;;;;;;;11.57;2.30;;;1.10;99.90;;;;;;4993616;28;20499;-73
2021/01/14 08:32:50;;;;;;;8.57;2.60;;;1.10;99.90;;;;;;4993931;28;20046;-74
2021/01/14 08:35:18;;;;;;;6.38;2.58;;;1.10;99.90;;;;;;4992662;28;20392;-73
2021/01/14 08:37:45;;;;;;;7.75;3.45;;;1.10;99.90;;;;;;4993167;28;20037;-73
2021/01/14 08:40:15;;;;;;;6.22;2.55;;;1.10;99.90;;;;;;5000398;28;20037;-75
2021/01/14 08:42:46;;;;;;;7.65;2.50;;;1.20;99.90;;;;;;4993091;28;20396;-73
2021/01/14 08:45:19;;;;;;;;;;;1.20;99.90;;;;;;4993406;28;20042;-74
2021/01/14 08:47:51;;;;;;;6.25;1.70;;;1.20;99.90;;;;;;4992580;28;19921;-74
2021/01/14 08:50:43;;;;;;;4.22;2.22;;;1.20;99.90;;;;;;4992649;28;20034;-74
2021/01/14 08:53:19;;;;;;;6.75;2.30;;;1.20;99.90;;;;;;4993185;28;20042;-74
2021/01/14 08:55:56;;;;;;;7.80;2.22;;;1.30;99.90;;;;;;4993252;28;20037;-74
2021/01/14 08:58:45;;;;;;;5.25;2.72;;;1.30;99.90;;;;;;4992743;28;20030;-74
2021/01/14 09:01:22;;;;;;;8.93;3.15;;;1.30;99.90;;;;;;4993191;28;20034;-75
2021/01/14 09:03:50;;;;;;;4.43;2.25;;;1.40;99.90;;;;;;4992968;28;20049;-74
2021/01/14 09:06:45;;;;;;;9.07;2.35;;;1.40;99.90;;;;;;4992241;28;20026;-74
2021/01/14 09:09:15;;;;;;;7.75;2.53;;;1.50;99.90;;;;;;4993094;28;20357;-74
2021/01/14 09:11:42;;;;;;;10.93;3.00;;;1.60;99.90;;;;;;4992789;28;20038;-74
2021/01/14 09:14:14;;;;;;;6.32;3.10;;;1.60;99.90;;;;;;5011354;28;20379;-74
2021/01/14 09:16:41;;;;;;;;;;;1.70;99.90;;;;;;4993746;28;20041;-74
2021/01/14 09:19:21;;;;;;;19.85;9.85;;;1.80;99.90;;;;;;4975595;28;19910;-74
2021/01/14 09:21:48;;;;;;;15.50;5.25;;;1.90;99.90;;;;;;4993018;28;20034;-74
2021/01/14 09:24:16;;;;;;;13.10;3.85;;;1.90;99.90;;;;;;4992354;28;20049;-74
2021/01/14 09:26:43;;;;;;;7.65;3.40;;;1.90;99.90;;;;;;4992823;28;20041;-74
2021/01/14 09:29:11;;;;;;;7.28;2.95;;;1.90;99.90;;;;;;4992372;28;20046;-74
2021/01/14 09:31:39;;;;;;;10.88;4.28;;;1.90;99.90;;;;;;4991265;28;20495;-74
2021/01/14 09:34:06;;;;;;;10.82;3.17;;;2.00;99.90;;;;;;4992233;28;20026;-74
2021/01/14 09:36:36;;;;;;;8.60;3.22;;;2.00;99.90;;;;;;4992413;28;20034;-74
2021/01/14 09:39:07;;;;;;;7.45;3.20;;;2.10;99.90;;;;;;4992482;28;20026;-74
2021/01/14 09:41:35;;;;;;;10.63;3.92;;;2.10;99.90;;;;;;4992368;28;20479;-74
2021/01/14 09:44:08;;;;;;;7.38;2.35;;;2.10;99.90;;;;;;4992308;28;20035;-74
2021/01/14 09:46:43;;;;;;;4.55;1.80;;;2.10;99.90;;;;;;4992402;28;20387;-73
2021/01/14 09:49:21;;;;;;;11.35;2.70;;;2.10;99.90;;;;;;4994104;28;20042;-73
2021/01/14 09:51:50;;;;;;;7.10;3.00;;;2.10;99.90;;;;;;4996382;28;20248;-73
2021/01/14 09:54:17;;;;;;;5.88;2.28;;;2.10;99.90;;;;;;4995717;28;20041;-74
2021/01/14 09:56:49;;;;;;;6.03;2.30;;;2.10;99.90;;;;;;4996226;28;20037;-74
2021/01/14 09:59:38;;;;;;;5.15;2.05;;;2.10;99.90;;;;;;4995514;28;20034;-75
2021/01/14 10:02:16;;;;;;;7.35;2.05;;;2.10;99.90;;;;;;4996124;28;20376;-74
2021/01/14 10:04:50;;;;;;;7.40;1.92;;;2.10;99.90;;;;;;4995048;28;20035;-74
2021/01/14 10:07:20;;;;;;;9.27;2.30;;;2.20;99.90;;;;;;4995860;28;20045;-75
2021/01/14 10:09:50;;;;;;;8.70;2.13;;;2.20;99.90;;;;;;4996130;28;20480;-74
2021/01/14 10:12:16;;;;;;;7.18;1.73;;;2.20;99.90;;;;;;4995544;28;20065;-74
2021/01/14 10:14:43;;;;;;;7.95;2.20;;;2.30;99.90;;;;;;4995884;28;20034;-74
2021/01/14 10:17:14;;;;;;;5.57;1.60;;;2.20;99.90;;;;;;4996067;28;20037;-73
2021/01/14 10:19:45;;;;;;;;;;;2.30;99.90;;;;;;4996174;28;20049;-75
2021/01/14 10:22:12;;;;;;;11.23;2.38;;;2.20;99.90;;;;;;4995841;28;19925;-73
2021/01/14 10:24:38;;;;;;;6.75;1.88;;;2.30;99.90;;;;;;4995040;28;20101;-74
2021/01/14 10:27:11;;;;;;;6.78;1.42;;;2.30;99.90;;;;;;4995950;28;20480;-74
2021/01/14 10:29:41;;;;;;;7.55;1.25;;;2.30;99.90;;;;;;4994761;28;20049;-73
2021/01/14 10:32:12;;;;;;;4.00;1.50;;;2.30;99.90;;;;;;4995752;28;20034;-74
2021/01/14 10:34:47;;;;;;;6.90;1.42;;;2.40;99.90;;;;;;4995069;28;20380;-75
2021/01/14 10:37:29;;;;;;;5.40;1.77;;;2.40;99.90;;;;;;4995635;28;20030;-73
2021/01/14 10:40:00;;;;;;;7.97;2.05;;;2.40;99.90;;;;;;4995765;28;20026;-74
2021/01/14 10:42:37;;;;;;;6.20;1.70;;;2.40;99.90;;;;;;4995431;28;20041;-73
2021/01/14 10:45:11;;;;;;;3.30;1.38;;;2.40;99.90;;;;;;4995743;28;20464;-74
2021/01/14 10:47:42;;;;;;;4.15;1.25;;;2.50;99.90;;;;;;4994811;28;20039;-74
2021/01/14 10:50:25;;;;;;;7.40;1.25;;;2.50;99.90;;;;;;4995334;28;20065;-74
2021/01/14 10:53:00;;;;;;;4.25;1.80;;;2.50;99.90;;;;;;4995193;28;20041;-74
2021/01/14 10:55:26;;;;;;;6.78;1.60;;;2.50;99.90;;;;;;4994243;28;20038;-74
2021/01/14 10:57:54;;;;;;;7.75;1.77;;;2.50;99.90;;;;;;4995065;28;20046;-73
2021/01/14 11:00:25;;;;;;;6.07;1.33;;;2.50;99.90;;;;;;4994378;28;20041;-73
2021/01/14 11:03:14;;;;;;;5.68;1.10;;;2.50;99.90;;;;;;4994808;28;20053;-74
2021/01/14 11:05:47;;;;;;;4.05;1.33;;;2.60;99.90;;;;;;4994866;28;20053;-73
2021/01/14 11:08:17;;;;;;;6.20;1.70;;;2.70;99.90;;;;;;4995041;28;20403;-74
2021/01/14 11:10:46;;;;;;;6.32;1.30;;;2.70;99.90;;;;;;4995038;28;20041;-73
2021/01/14 11:13:15;;;;;;;5.93;1.20;;;2.70;99.90;;;;;;4995007;28;20035;-74
2021/01/14 11:15:42;;;;;;;4.70;1.40;;;2.80;99.90;;;;;;4978031;28;20046;-74
2021/01/14 11:18:10;;;;;;;3.75;1.30;;;2.80;99.90;;;;;;4993745;28;20046;-74
2021/01/14 11:20:37;;;;;;;6.50;1.88;;;2.70;99.90;;;;;;4994572;28;20271;-74
2021/01/14 11:23:03;;;;;;;6.95;1.50;;;2.80;99.90;;;;;;4994897;28;20034;-74
2021/01/14 11:25:30;;;;;;;6.07;1.27;;;2.80;99.90;;;;;;4994027;28;20051;-74
2021/01/14 11:27:57;;;;;;;12.15;1.88;;;2.70;99.90;;;;;;4994573;28;20038;-74
2021/01/14 11:30:24;;;;;;;3.85;1.27;;;2.80;99.90;;;;;;4994517;28;20034;-74
2021/01/14 11:32:51;;;;;;;4.53;1.52;;;3.00;99.90;;;;;;4994297;28;20498;-74
2021/01/14 11:35:18;;;;;;;3.72;0.88;;;3.10;99.90;;;;;;4993889;28;20091;-75
2021/01/14 11:37:44;;;;;;;6.68;1.75;;;3.10;99.90;;;;;;4994543;28;20468;-74
2021/01/14 11:40:11;;;;;;;6.22;1.55;;;3.10;99.90;;;;;;4994902;28;20041;-74
2021/01/14 11:42:38;;;;;;;11.52;2.33;;;3.00;99.90;;;;;;4994263;28;20472;-74
2021/01/14 11:45:05;;;;;;;6.15;2.33;;;3.00;99.90;;;;;;4994256;28;20041;-74
2021/01/14 11:47:31;;;;;;;5.32;1.08;;;3.10;99.90;;;;;;4993305;28;20038;-74
2021/01/14 11:49:57;;;;;;;10.18;2.30;;;3.10;99.90;;;;;;4994032;28;20041;-74
2021/01/14 11:52:24;;;;;;;7.38;1.73;;;3.10;99.90;;;;;;4993465;28;20038;-74
2021/01/14 11:54:51;;;;;;;6.50;1.50;;;3.10;99.90;;;;;;4994280;28;20045;-74
2021/01/14 11:57:17;;;;;;;8.18;1.75;;;3.10;99.90;;;;;;4993919;28;20384;-75
2021/01/14 11:59:43;;;;;;;5.72;1.88;;;3.00;99.90;;;;;;4994107;28;20031;-75
2021/01/14 12:02:10;;;;;;;10.88;1.83;;;3.00;99.90;;;;;;4976492;28;20034;-74
2021/01/14 12:04:36;;;;;;;3.97;1.55;;;3.00;99.90;;;;;;4993791;28;20026;-74
2021/01/14 12:07:02;;;;;;;8.35;2.25;;;3.10;99.90;;;;;;4993879;28;20045;-74
2021/01/14 12:09:30;;;;;;;4.38;1.77;;;3.20;99.90;;;;;;4993326;28;20503;-74
2021/01/14 12:11:56;;;;;;;5.80;1.77;;;3.20;99.90;;;;;;4992824;28;20030;-74
2021/01/14 12:14:22;;;;;;;3.72;1.52;;;3.10;99.90;;;;;;4993133;28;20464;-74
2021/01/14 12:16:49;;;;;;;4.70;1.52;;;3.10;99.60;;;;;;4994008;28;20039;-74
2021/01/14 12:19:15;;;;;;;6.00;1.70;;;3.10;99.70;;;;;;4993557;28;20460;-74
2021/01/14 12:21:41;;;;;;;6.10;1.83;;;3.20;98.50;;;;;;4993424;28;20037;-74
2021/01/14 12:24:08;;;;;;;9.23;2.42;;;3.30;98.00;;;;;;4993491;28;20057;-74
2021/01/14 12:26:37;;;;;;;6.82;1.70;;;3.20;98.10;;;;;;4993777;28;20472;-74
2021/01/14 12:29:04;;;;;;;8.20;2.15;;;3.20;98.40;;;;;;4993521;28;20387;-74
2021/01/14 12:31:34;;;;;;;8.18;2.33;;;3.20;98.00;;;;;;4993070;28;20046;-75
2021/01/14 12:34:01;;;;;;;5.50;1.75;;;3.20;99.00;;;;;;4993510;28;20046;-75
2021/01/14 12:36:27;;;;;;;5.07;2.05;;;3.10;99.00;;;;;;4993498;28;20045;-74
2021/01/14 12:38:54;;;;;;;4.63;1.27;;;3.20;98.30;;;;;;4993311;28;20034;-74
2021/01/14 12:41:28;;;;;;;4.43;1.67;;;3.10;97.00;;;;;;4992829;28;20479;-74
2021/01/14 12:43:55;;;;;;;5.82;2.47;;;3.20;96.70;;;;;;4992960;28;20042;-73
2021/01/14 12:46:21;;;;;;;3.65;1.50;;;3.20;95.60;;;;;;4992601;28;20027;-74
2021/01/14 12:48:47;;;;;;;5.88;1.60;;;3.30;95.60;;;;;;4993228;28;20046;-73
2021/01/14 12:51:20;;;;;;;6.13;1.25;;;3.20;94.70;;;;;;4992870;28;20030;-73
2021/01/14 12:53:47;;;;;;;9.63;1.50;;;3.30;95.10;;;;;;4993326;28;20061;-74
2021/01/14 12:56:16;;;;;;;6.20;2.70;;;3.20;94.50;;;;;;4992989;28;20491;-73
2021/01/14 12:58:43;;;;;;;4.28;1.65;;;3.30;93.60;;;;;;4992585;28;20041;-73
2021/01/14 13:01:09;;;;;;;5.03;0.88;;;3.30;93.10;;;;;;4991899;28;20046;-74
2021/01/14 13:03:35;;;;;;;4.93;1.20;;;3.40;92.50;;;;;;4991819;28;20043;-74
2021/01/14 13:06:01;;;;;;;3.40;1.27;;;3.40;91.80;;;;;;4992878;28;20037;-74
2021/01/14 13:08:28;;;;;;;6.78;1.55;;;3.40;92.60;;;;;;4993306;28;20033;-74
2021/01/14 13:10:54;;;;;;;5.40;1.63;;;3.30;91.50;;;;;;4992288;28;20051;-73
2021/01/14 13:13:20;;;;;;;7.10;1.85;;;3.30;92.00;;;;;;4992323;28;20057;-75
2021/01/14 13:15:54;;;;;;;3.55;1.27;;;3.20;92.10;;;;;;4992293;28;20060;-74
2021/01/14 13:18:25;;;;;;;4.80;1.17;;;3.20;92.40;;;;;;4991897;28;20038;-75
2021/01/14 13:20:51;;;;;;;5.05;1.90;;;3.20;92.30;;;;;;4992688;28;20034;-74
2021/01/14 13:23:18;;;;;;;6.30;1.60;;;3.20;92.40;;;;;;4992703;28;20384;-73
2021/01/14 13:25:44;;;;;;;4.97;1.27;;;3.30;93.00;;;;;;4992562;28;20042;-74
2021/01/14 13:28:10;;;;;;;5.32;1.10;;;3.30;92.40;;;;;;4992658;28;20041;-74
2021/01/14 13:30:36;;;;;;;4.38;1.40;;;3.30;92.50;;;;;;4992245;28;20041;-74
2021/01/14 13:33:03;;;;;;;3.10;1.35;;;3.30;92.40;;;;;;4974490;28;20042;-74
2021/01/14 13:35:29;;;;;;;6.68;1.10;;;3.30;93.10;;;;;;4992191;28;20061;-74